sensor_id;sensor_type;location;lat;lon;timestamp;P1;durP1;ratioP1;P2;durP2;ratioP2
74401;SDS011;62837;51.082;13.744;2023-03-08T00:00:53;2.00;;;1.40;;
74401;SDS011;62837;51.082;13.744;2023-03-08T00:03:24;1.60;;;1.00;;
74401;SDS011;62837;51.082;13.744;2023-03-08T00:05:54;1.70;;;1.00;;
74401;SDS011;62837;51.082;13.744;2023-03-08T00:08:25;2.00;;;1.50;;
74401;SDS011;62837;51.082;13.744;2023-03-08T00:10:56;1.70;;;1.00;;
74401;SDS011;62837;51.082;13.744;2023-03-08T00:13:27;2.00;;;1.10;;
74401;SDS011;62837;51.082;13.744;2023-03-08T00:15:59;2.30;;;1.20;;
74401;SDS011;62837;51.082;13.744;2023-03-08T00:18:30;2.20;;;1.70;;
74401;SDS011;62837;51.082;13.744;2023-03-08T00:21:02;2.30;;;1.20;;
74401;SDS011;62837;51.082;13.744;2023-03-08T00:23:35;2.00;;;1.10;;
74401;SDS011;62837;51.082;13.744;2023-03-08T00:26:06;1.50;;;1.10;;
74401;SDS011;62837;51.082;13.744;2023-03-08T00:28:37;2.50;;;1.30;;
74401;SDS011;62837;51.082;13.744;2023-03-08T00:31:09;1.50;;;0.80;;
74401;SDS011;62837;51.082;13.744;2023-03-08T00:33:41;2.00;;;1.50;;
74401;SDS011;62837;51.082;13.744;2023-03-08T00:36:14;2.10;;;1.20;;
74401;SDS011;62837;51.082;13.744;2023-03-08T00:38:46;1.60;;;0.80;;
74401;SDS011;62837;51.082;13.744;2023-03-08T00:41:18;3.20;;;1.50;;
74401;SDS011;62837;51.082;13.744;2023-03-08T00:43:49;2.00;;;1.20;;
74401;SDS011;62837;51.082;13.744;2023-03-08T00:46:20;2.00;;;1.10;;
74401;SDS011;62837;51.082;13.744;2023-03-08T00:48:52;1.90;;;0.90;;
74401;SDS011;62837;51.082;13.744;2023-03-08T00:51:23;1.40;;;1.10;;
74401;SDS011;62837;51.082;13.744;2023-03-08T00:53:54;1.30;;;1.00;;
74401;SDS011;62837;51.082;13.744;2023-03-08T00:56:25;1.80;;;0.80;;
74401;SDS011;62837;51.082;13.744;2023-03-08T00:58:56;2.60;;;1.50;;
74401;SDS011;62837;51.082;13.744;2023-03-08T01:01:27;1.80;;;1.10;;
74401;SDS011;62837;51.082;13.744;2023-03-08T01:03:59;3.00;;;1.80;;
74401;SDS011;62837;51.082;13.744;2023-03-08T01:06:31;1.10;;;1.00;;
74401;SDS011;62837;51.082;13.744;2023-03-08T01:09:01;2.60;;;1.10;;
74401;SDS011;62837;51.082;13.744;2023-03-08T01:11:32;1.90;;;1.00;;
74401;SDS011;62837;51.082;13.744;2023-03-08T01:14:04;2.30;;;1.00;;
74401;SDS011;62837;51.082;13.744;2023-03-08T01:16:36;1.90;;;1.00;;
74401;SDS011;62837;51.082;13.744;2023-03-08T01:19:07;2.70;;;1.50;;
74401;SDS011;62837;51.082;13.744;2023-03-08T01:21:41;3.70;;;1.90;;
74401;SDS011;62837;51.082;13.744;2023-03-08T01:24:12;3.30;;;1.80;;
74401;SDS011;62837;51.082;13.744;2023-03-08T01:26:43;3.80;;;2.10;;
74401;SDS011;62837;51.082;13.744;2023-03-08T01:29:13;2.90;;;1.80;;
74401;SDS011;62837;51.082;13.744;2023-03-08T01:31:44;2.60;;;1.70;;
74401;SDS011;62837;51.082;13.744;2023-03-08T01:34:15;3.30;;;1.90;;
74401;SDS011;62837;51.082;13.744;2023-03-08T01:39:18;5.40;;;1.70;;
74401;SDS011;62837;51.082;13.744;2023-03-08T01:41:49;6.50;;;2.50;;
74401;SDS011;62837;51.082;13.744;2023-03-08T01:44:20;4.40;;;1.40;;
74401;SDS011;62837;51.082;13.744;2023-03-08T01:46:52;4.50;;;1.80;;
74401;SDS011;62837;51.082;13.744;2023-03-08T01:49:38;5.20;;;2.10;;
74401;SDS011;62837;51.082;13.744;2023-03-08T01:52:09;7.70;;;2.30;;
74401;SDS011;62837;51.082;13.744;2023-03-08T01:54:44;5.80;;;2.60;;
74401;SDS011;62837;51.082;13.744;2023-03-08T01:57:18;7.20;;;2.50;;
74401;SDS011;62837;51.082;13.744;2023-03-08T01:59:52;4.70;;;1.30;;
74401;SDS011;62837;51.082;13.744;2023-03-08T02:02:29;2.90;;;1.30;;
74401;SDS011;62837;51.082;13.744;2023-03-08T02:05:05;3.30;;;0.90;;
74401;SDS011;62837;51.082;13.744;2023-03-08T02:07:38;4.60;;;1.50;;
74401;SDS011;62837;51.082;13.744;2023-03-08T02:10:10;4.00;;;1.50;;
74401;SDS011;62837;51.082;13.744;2023-03-08T02:12:42;2.10;;;1.10;;
74401;SDS011;62837;51.082;13.744;2023-03-08T02:15:14;2.70;;;0.90;;
74401;SDS011;62837;51.082;13.744;2023-03-08T02:17:50;2.20;;;1.10;;
74401;SDS011;62837;51.082;13.744;2023-03-08T02:20:22;3.60;;;1.30;;
74401;SDS011;62837;51.082;13.744;2023-03-08T02:23:05;3.50;;;1.00;;
74401;SDS011;62837;51.082;13.744;2023-03-08T02:25:37;2.60;;;1.30;;
74401;SDS011;62837;51.082;13.744;2023-03-08T02:28:08;1.90;;;1.30;;
74401;SDS011;62837;51.082;13.744;2023-03-08T02:30:40;2.90;;;1.40;;
74401;SDS011;62837;51.082;13.744;2023-03-08T02:33:10;3.90;;;1.10;;
74401;SDS011;62837;51.082;13.744;2023-03-08T02:35:41;4.90;;;1.70;;
74401;SDS011;62837;51.082;13.744;2023-03-08T02:38:13;2.70;;;1.30;;
74401;SDS011;62837;51.082;13.744;2023-03-08T02:40:45;3.70;;;1.40;;
74401;SDS011;62837;51.082;13.744;2023-03-08T02:43:18;1.70;;;1.20;;
74401;SDS011;62837;51.082;13.744;2023-03-08T02:45:49;4.30;;;1.40;;
74401;SDS011;62837;51.082;13.744;2023-03-08T02:48:20;3.90;;;1.40;;
74401;SDS011;62837;51.082;13.744;2023-03-08T02:50:51;1.70;;;1.30;;
74401;SDS011;62837;51.082;13.744;2023-03-08T02:53:21;3.10;;;1.70;;
74401;SDS011;62837;51.082;13.744;2023-03-08T02:55:52;3.70;;;2.30;;
74401;SDS011;62837;51.082;13.744;2023-03-08T02:58:23;3.30;;;1.80;;
74401;SDS011;62837;51.082;13.744;2023-03-08T03:00:54;2.50;;;1.50;;
74401;SDS011;62837;51.082;13.744;2023-03-08T03:03:25;2.10;;;1.20;;
74401;SDS011;62837;51.082;13.744;2023-03-08T03:05:58;2.20;;;0.90;;
74401;SDS011;62837;51.082;13.744;2023-03-08T03:08:30;3.40;;;1.70;;
74401;SDS011;62837;51.082;13.744;2023-03-08T03:11:01;3.80;;;2.10;;
74401;SDS011;62837;51.082;13.744;2023-03-08T03:13:40;3.30;;;1.60;;
74401;SDS011;62837;51.082;13.744;2023-03-08T03:16:13;1.60;;;1.20;;
74401;SDS011;62837;51.082;13.744;2023-03-08T03:18:45;4.30;;;1.30;;
74401;SDS011;62837;51.082;13.744;2023-03-08T03:21:16;2.80;;;1.60;;
74401;SDS011;62837;51.082;13.744;2023-03-08T03:23:46;4.40;;;1.10;;
74401;SDS011;62837;51.082;13.744;2023-03-08T03:26:20;2.10;;;1.30;;
74401;SDS011;62837;51.082;13.744;2023-03-08T03:28:55;1.70;;;1.20;;
74401;SDS011;62837;51.082;13.744;2023-03-08T03:31:29;2.60;;;1.30;;
74401;SDS011;62837;51.082;13.744;2023-03-08T03:34:01;2.30;;;1.20;;
74401;SDS011;62837;51.082;13.744;2023-03-08T03:36:32;3.30;;;1.80;;
74401;SDS011;62837;51.082;13.744;2023-03-08T03:39:03;2.30;;;1.40;;
74401;SDS011;62837;51.082;13.744;2023-03-08T03:41:35;5.10;;;1.60;;
74401;SDS011;62837;51.082;13.744;2023-03-08T03:44:09;2.70;;;1.10;;
74401;SDS011;62837;51.082;13.744;2023-03-08T03:46:41;2.70;;;1.50;;
74401;SDS011;62837;51.082;13.744;2023-03-08T03:49:14;2.90;;;1.70;;
74401;SDS011;62837;51.082;13.744;2023-03-08T03:51:45;2.50;;;1.20;;
74401;SDS011;62837;51.082;13.744;2023-03-08T03:54:25;3.00;;;1.60;;
74401;SDS011;62837;51.082;13.744;2023-03-08T03:56:57;2.50;;;1.60;;
74401;SDS011;62837;51.082;13.744;2023-03-08T03:59:31;2.60;;;1.50;;
74401;SDS011;62837;51.082;13.744;2023-03-08T04:02:02;2.30;;;1.40;;
74401;SDS011;62837;51.082;13.744;2023-03-08T04:04:38;3.30;;;1.60;;
74401;SDS011;62837;51.082;13.744;2023-03-08T04:07:09;2.10;;;1.30;;
74401;SDS011;62837;51.082;13.744;2023-03-08T04:09:46;2.70;;;1.50;;
74401;SDS011;62837;51.082;13.744;2023-03-08T04:12:17;2.60;;;1.60;;
74401;SDS011;62837;51.082;13.744;2023-03-08T04:14:48;3.20;;;1.50;;
74401;SDS011;62837;51.082;13.744;2023-03-08T04:17:21;2.90;;;1.80;;
74401;SDS011;62837;51.082;13.744;2023-03-08T04:19:53;4.10;;;1.40;;
74401;SDS011;62837;51.082;13.744;2023-03-08T04:22:24;3.00;;;1.80;;
74401;SDS011;62837;51.082;13.744;2023-03-08T04:25:02;4.90;;;1.80;;
74401;SDS011;62837;51.082;13.744;2023-03-08T04:27:40;3.80;;;1.80;;
74401;SDS011;62837;51.082;13.744;2023-03-08T04:30:12;4.50;;;2.50;;
74401;SDS011;62837;51.082;13.744;2023-03-08T04:32:44;4.50;;;2.20;;
74401;SDS011;62837;51.082;13.744;2023-03-08T04:35:14;4.30;;;2.30;;
74401;SDS011;62837;51.082;13.744;2023-03-08T04:37:46;4.80;;;2.10;;
74401;SDS011;62837;51.082;13.744;2023-03-08T04:40:18;3.70;;;2.30;;
74401;SDS011;62837;51.082;13.744;2023-03-08T04:42:54;2.10;;;1.40;;
74401;SDS011;62837;51.082;13.744;2023-03-08T04:45:29;2.10;;;1.50;;
74401;SDS011;62837;51.082;13.744;2023-03-08T04:48:03;3.30;;;2.20;;
74401;SDS011;62837;51.082;13.744;2023-03-08T04:50:34;5.30;;;2.60;;
74401;SDS011;62837;51.082;13.744;2023-03-08T04:53:06;4.50;;;2.30;;
74401;SDS011;62837;51.082;13.744;2023-03-08T04:55:37;4.50;;;2.40;;
74401;SDS011;62837;51.082;13.744;2023-03-08T04:58:08;6.00;;;2.80;;
74401;SDS011;62837;51.082;13.744;2023-03-08T05:00:39;4.90;;;2.80;;
74401;SDS011;62837;51.082;13.744;2023-03-08T05:03:10;6.00;;;3.40;;
74401;SDS011;62837;51.082;13.744;2023-03-08T05:05:44;5.60;;;3.00;;
74401;SDS011;62837;51.082;13.744;2023-03-08T05:08:16;5.70;;;3.30;;
74401;SDS011;62837;51.082;13.744;2023-03-08T05:10:48;7.30;;;4.20;;
74401;SDS011;62837;51.082;13.744;2023-03-08T05:13:28;6.50;;;3.80;;
74401;SDS011;62837;51.082;13.744;2023-03-08T05:16:01;8.60;;;3.70;;
74401;SDS011;62837;51.082;13.744;2023-03-08T05:18:33;5.90;;;3.60;;
74401;SDS011;62837;51.082;13.744;2023-03-08T05:21:06;9.50;;;4.50;;
74401;SDS011;62837;51.082;13.744;2023-03-08T05:23:39;8.40;;;4.60;;
74401;SDS011;62837;51.082;13.744;2023-03-08T05:26:12;8.40;;;4.50;;
74401;SDS011;62837;51.082;13.744;2023-03-08T05:28:45;9.50;;;4.40;;
74401;SDS011;62837;51.082;13.744;2023-03-08T05:31:17;9.60;;;4.50;;
74401;SDS011;62837;51.082;13.744;2023-03-08T05:33:50;11.30;;;5.30;;
74401;SDS011;62837;51.082;13.744;2023-03-08T05:36:27;10.40;;;6.00;;
74401;SDS011;62837;51.082;13.744;2023-03-08T05:38:58;11.30;;;5.60;;
74401;SDS011;62837;51.082;13.744;2023-03-08T05:41:37;12.40;;;5.20;;
74401;SDS011;62837;51.082;13.744;2023-03-08T05:44:08;11.20;;;4.90;;
74401;SDS011;62837;51.082;13.744;2023-03-08T05:46:39;10.00;;;4.30;;
74401;SDS011;62837;51.082;13.744;2023-03-08T05:49:11;9.60;;;5.30;;
74401;SDS011;62837;51.082;13.744;2023-03-08T05:51:42;10.10;;;4.80;;
74401;SDS011;62837;51.082;13.744;2023-03-08T05:54:13;8.00;;;4.40;;
74401;SDS011;62837;51.082;13.744;2023-03-08T05:56:44;7.80;;;4.20;;
74401;SDS011;62837;51.082;13.744;2023-03-08T05:59:24;9.20;;;4.50;;
74401;SDS011;62837;51.082;13.744;2023-03-08T06:01:58;8.20;;;3.80;;
74401;SDS011;62837;51.082;13.744;2023-03-08T06:04:58;2.10;;;1.00;;
74401;SDS011;62837;51.082;13.744;2023-03-08T06:07:29;5.40;;;2.70;;
74401;SDS011;62837;51.082;13.744;2023-03-08T06:10:06;5.30;;;2.90;;
74401;SDS011;62837;51.082;13.744;2023-03-08T06:12:38;10.30;;;4.40;;
74401;SDS011;62837;51.082;13.744;2023-03-08T06:15:12;9.80;;;4.50;;
74401;SDS011;62837;51.082;13.744;2023-03-08T06:17:42;8.70;;;4.20;;
74401;SDS011;62837;51.082;13.744;2023-03-08T06:20:15;7.80;;;3.80;;
74401;SDS011;62837;51.082;13.744;2023-03-08T06:22:48;8.20;;;4.30;;
74401;SDS011;62837;51.082;13.744;2023-03-08T06:25:19;7.60;;;3.60;;
74401;SDS011;62837;51.082;13.744;2023-03-08T06:27:50;6.70;;;3.40;;
74401;SDS011;62837;51.082;13.744;2023-03-08T06:30:26;7.30;;;4.00;;
74401;SDS011;62837;51.082;13.744;2023-03-08T06:32:57;6.20;;;3.60;;
74401;SDS011;62837;51.082;13.744;2023-03-08T06:35:28;6.80;;;3.60;;
74401;SDS011;62837;51.082;13.744;2023-03-08T06:38:01;6.40;;;3.10;;
74401;SDS011;62837;51.082;13.744;2023-03-08T06:40:32;8.60;;;3.30;;
74401;SDS011;62837;51.082;13.744;2023-03-08T06:43:03;7.80;;;3.60;;
74401;SDS011;62837;51.082;13.744;2023-03-08T06:45:36;8.50;;;4.10;;
74401;SDS011;62837;51.082;13.744;2023-03-08T06:48:07;7.40;;;3.60;;
74401;SDS011;62837;51.082;13.744;2023-03-08T06:50:38;6.00;;;2.70;;
74401;SDS011;62837;51.082;13.744;2023-03-08T06:53:10;8.70;;;3.60;;
74401;SDS011;62837;51.082;13.744;2023-03-08T06:55:48;5.80;;;3.10;;
74401;SDS011;62837;51.082;13.744;2023-03-08T06:58:19;6.00;;;2.40;;
74401;SDS011;62837;51.082;13.744;2023-03-08T07:00:49;7.10;;;3.40;;
74401;SDS011;62837;51.082;13.744;2023-03-08T07:03:22;4.80;;;2.40;;
74401;SDS011;62837;51.082;13.744;2023-03-08T07:05:52;6.80;;;2.70;;
74401;SDS011;62837;51.082;13.744;2023-03-08T07:08:28;7.30;;;3.10;;
74401;SDS011;62837;51.082;13.744;2023-03-08T07:10:59;6.70;;;2.50;;
74401;SDS011;62837;51.082;13.744;2023-03-08T07:13:30;5.50;;;2.80;;
74401;SDS011;62837;51.082;13.744;2023-03-08T07:16:05;5.40;;;2.40;;
74401;SDS011;62837;51.082;13.744;2023-03-08T07:18:36;6.10;;;3.50;;
74401;SDS011;62837;51.082;13.744;2023-03-08T07:21:08;14.00;;;6.70;;
74401;SDS011;62837;51.082;13.744;2023-03-08T07:23:39;8.90;;;4.90;;
74401;SDS011;62837;51.082;13.744;2023-03-08T07:26:09;8.20;;;4.90;;
74401;SDS011;62837;51.082;13.744;2023-03-08T07:28:40;8.80;;;5.30;;
74401;SDS011;62837;51.082;13.744;2023-03-08T07:31:11;7.70;;;4.20;;
74401;SDS011;62837;51.082;13.744;2023-03-08T07:33:42;6.30;;;3.40;;
74401;SDS011;62837;51.082;13.744;2023-03-08T07:36:13;5.90;;;2.90;;
74401;SDS011;62837;51.082;13.744;2023-03-08T07:38:43;5.00;;;3.10;;
74401;SDS011;62837;51.082;13.744;2023-03-08T07:41:14;4.50;;;2.50;;
74401;SDS011;62837;51.082;13.744;2023-03-08T07:43:45;5.20;;;3.00;;
74401;SDS011;62837;51.082;13.744;2023-03-08T07:46:20;3.00;;;1.80;;
74401;SDS011;62837;51.082;13.744;2023-03-08T07:48:52;3.90;;;2.00;;
74401;SDS011;62837;51.082;13.744;2023-03-08T07:51:22;3.50;;;1.20;;
74401;SDS011;62837;51.082;13.744;2023-03-08T07:53:53;3.10;;;1.30;;
74401;SDS011;62837;51.082;13.744;2023-03-08T07:56:24;1.70;;;0.70;;
74401;SDS011;62837;51.082;13.744;2023-03-08T07:58:55;3.00;;;1.60;;
74401;SDS011;62837;51.082;13.744;2023-03-08T08:01:26;10.30;;;5.10;;
74401;SDS011;62837;51.082;13.744;2023-03-08T08:03:57;2.60;;;1.80;;
74401;SDS011;62837;51.082;13.744;2023-03-08T08:06:28;3.30;;;1.40;;
74401;SDS011;62837;51.082;13.744;2023-03-08T08:08:59;3.20;;;2.10;;
74401;SDS011;62837;51.082;13.744;2023-03-08T08:11:30;4.40;;;1.90;;
74401;SDS011;62837;51.082;13.744;2023-03-08T08:14:02;6.70;;;5.40;;
74401;SDS011;62837;51.082;13.744;2023-03-08T08:16:33;5.60;;;3.30;;
74401;SDS011;62837;51.082;13.744;2023-03-08T08:19:04;5.90;;;3.20;;
74401;SDS011;62837;51.082;13.744;2023-03-08T08:21:35;8.70;;;5.00;;
74401;SDS011;62837;51.082;13.744;2023-03-08T08:24:07;9.60;;;4.80;;
74401;SDS011;62837;51.082;13.744;2023-03-08T08:26:38;8.30;;;4.60;;
74401;SDS011;62837;51.082;13.744;2023-03-08T08:29:08;8.30;;;4.40;;
74401;SDS011;62837;51.082;13.744;2023-03-08T08:31:39;7.10;;;4.20;;
74401;SDS011;62837;51.082;13.744;2023-03-08T08:34:10;5.30;;;2.90;;
74401;SDS011;62837;51.082;13.744;2023-03-08T08:36:41;5.80;;;3.70;;
74401;SDS011;62837;51.082;13.744;2023-03-08T08:39:11;5.60;;;3.40;;
74401;SDS011;62837;51.082;13.744;2023-03-08T08:41:42;7.40;;;3.40;;
74401;SDS011;62837;51.082;13.744;2023-03-08T08:44:12;6.60;;;4.10;;
74401;SDS011;62837;51.082;13.744;2023-03-08T08:46:43;8.60;;;4.50;;
74401;SDS011;62837;51.082;13.744;2023-03-08T08:49:15;8.20;;;4.60;;
74401;SDS011;62837;51.082;13.744;2023-03-08T08:51:45;7.80;;;4.20;;
74401;SDS011;62837;51.082;13.744;2023-03-08T08:54:16;7.30;;;4.70;;
74401;SDS011;62837;51.082;13.744;2023-03-08T08:56:47;8.00;;;4.90;;
74401;SDS011;62837;51.082;13.744;2023-03-08T08:59:18;8.60;;;5.20;;
74401;SDS011;62837;51.082;13.744;2023-03-08T09:01:49;9.80;;;5.60;;
74401;SDS011;62837;51.082;13.744;2023-03-08T09:04:20;12.30;;;6.40;;
74401;SDS011;62837;51.082;13.744;2023-03-08T09:06:51;12.30;;;6.90;;
74401;SDS011;62837;51.082;13.744;2023-03-08T09:09:21;11.40;;;6.70;;
74401;SDS011;62837;51.082;13.744;2023-03-08T09:11:53;8.40;;;4.80;;
74401;SDS011;62837;51.082;13.744;2023-03-08T09:14:24;12.90;;;5.80;;
74401;SDS011;62837;51.082;13.744;2023-03-08T09:16:55;10.90;;;5.90;;
74401;SDS011;62837;51.082;13.744;2023-03-08T09:19:26;11.20;;;6.20;;
74401;SDS011;62837;51.082;13.744;2023-03-08T09:21:56;14.10;;;5.90;;
74401;SDS011;62837;51.082;13.744;2023-03-08T09:24:27;10.30;;;5.00;;
74401;SDS011;62837;51.082;13.744;2023-03-08T09:26:58;9.40;;;4.90;;
74401;SDS011;62837;51.082;13.744;2023-03-08T09:29:29;8.80;;;5.00;;
74401;SDS011;62837;51.082;13.744;2023-03-08T09:32:00;9.00;;;5.00;;
74401;SDS011;62837;51.082;13.744;2023-03-08T09:34:31;7.60;;;4.30;;
74401;SDS011;62837;51.082;13.744;2023-03-08T09:37:02;5.90;;;4.20;;
74401;SDS011;62837;51.082;13.744;2023-03-08T09:39:35;7.30;;;4.00;;
74401;SDS011;62837;51.082;13.744;2023-03-08T09:42:14;7.30;;;4.60;;
74401;SDS011;62837;51.082;13.744;2023-03-08T09:44:54;7.40;;;3.10;;
74401;SDS011;62837;51.082;13.744;2023-03-08T09:47:39;6.70;;;4.10;;
74401;SDS011;62837;51.082;13.744;2023-03-08T09:50:18;7.00;;;4.00;;
74401;SDS011;62837;51.082;13.744;2023-03-08T09:53:02;6.80;;;4.40;;
74401;SDS011;62837;51.082;13.744;2023-03-08T09:55:41;7.70;;;4.60;;
74401;SDS011;62837;51.082;13.744;2023-03-08T09:58:18;8.10;;;4.50;;
74401;SDS011;62837;51.082;13.744;2023-03-08T10:00:58;8.00;;;4.60;;
74401;SDS011;62837;51.082;13.744;2023-03-08T10:03:39;8.20;;;4.80;;
74401;SDS011;62837;51.082;13.744;2023-03-08T10:06:42;7.90;;;3.70;;
74401;SDS011;62837;51.082;13.744;2023-03-08T10:09:23;7.60;;;5.10;;
74401;SDS011;62837;51.082;13.744;2023-03-08T10:12:02;8.90;;;5.90;;
74401;SDS011;62837;51.082;13.744;2023-03-08T10:14:46;5.60;;;3.40;;
74401;SDS011;62837;51.082;13.744;2023-03-08T10:17:21;6.30;;;3.80;;
74401;SDS011;62837;51.082;13.744;2023-03-08T10:19:54;6.00;;;3.70;;
74401;SDS011;62837;51.082;13.744;2023-03-08T10:22:29;6.30;;;4.10;;
74401;SDS011;62837;51.082;13.744;2023-03-08T10:25:14;6.10;;;3.80;;
74401;SDS011;62837;51.082;13.744;2023-03-08T10:27:51;5.90;;;3.30;;
74401;SDS011;62837;51.082;13.744;2023-03-08T10:30:24;6.90;;;4.00;;
74401;SDS011;62837;51.082;13.744;2023-03-08T10:33:00;6.20;;;4.10;;
74401;SDS011;62837;51.082;13.744;2023-03-08T10:35:35;6.40;;;3.80;;
74401;SDS011;62837;51.082;13.744;2023-03-08T10:38:13;5.30;;;3.30;;
74401;SDS011;62837;51.082;13.744;2023-03-08T10:40:45;6.00;;;3.40;;
74401;SDS011;62837;51.082;13.744;2023-03-08T10:43:18;7.70;;;4.00;;
74401;SDS011;62837;51.082;13.744;2023-03-08T10:45:59;5.90;;;3.50;;
74401;SDS011;62837;51.082;13.744;2023-03-08T10:48:32;6.00;;;3.80;;
74401;SDS011;62837;51.082;13.744;2023-03-08T10:51:04;5.50;;;4.20;;
74401;SDS011;62837;51.082;13.744;2023-03-08T10:53:52;5.20;;;3.00;;
74401;SDS011;62837;51.082;13.744;2023-03-08T10:56:25;7.20;;;2.90;;
74401;SDS011;62837;51.082;13.744;2023-03-08T10:59:02;3.10;;;2.20;;
74401;SDS011;62837;51.082;13.744;2023-03-08T11:01:34;3.00;;;1.80;;
74401;SDS011;62837;51.082;13.744;2023-03-08T11:04:19;5.90;;;3.00;;
74401;SDS011;62837;51.082;13.744;2023-03-08T11:06:51;5.70;;;3.30;;
74401;SDS011;62837;51.082;13.744;2023-03-08T11:09:23;5.50;;;3.40;;
74401;SDS011;62837;51.082;13.744;2023-03-08T11:11:56;5.60;;;3.00;;
74401;SDS011;62837;51.082;13.744;2023-03-08T11:14:28;4.90;;;2.90;;
74401;SDS011;62837;51.082;13.744;2023-03-08T11:17:02;4.40;;;3.10;;
74401;SDS011;62837;51.082;13.744;2023-03-08T11:19:44;5.20;;;3.60;;
74401;SDS011;62837;51.082;13.744;2023-03-08T11:22:39;5.20;;;3.00;;
74401;SDS011;62837;51.082;13.744;2023-03-08T11:25:37;6.30;;;3.50;;
74401;SDS011;62837;51.082;13.744;2023-03-08T11:28:21;5.30;;;3.00;;
74401;SDS011;62837;51.082;13.744;2023-03-08T11:31:11;7.50;;;3.10;;
74401;SDS011;62837;51.082;13.744;2023-03-08T11:33:50;6.20;;;3.00;;
74401;SDS011;62837;51.082;13.744;2023-03-08T11:36:31;4.60;;;2.40;;
74401;SDS011;62837;51.082;13.744;2023-03-08T11:39:12;4.60;;;2.80;;
74401;SDS011;62837;51.082;13.744;2023-03-08T11:41:54;4.80;;;2.70;;
74401;SDS011;62837;51.082;13.744;2023-03-08T11:50:30;3.70;;;2.30;;
74401;SDS011;62837;51.082;13.744;2023-03-08T11:53:11;5.50;;;3.20;;
74401;SDS011;62837;51.082;13.744;2023-03-08T11:56:08;5.60;;;3.30;;
74401;SDS011;62837;51.082;13.744;2023-03-08T11:58:54;8.10;;;3.60;;
74401;SDS011;62837;51.082;13.744;2023-03-08T12:01:31;5.80;;;3.30;;
74401;SDS011;62837;51.082;13.744;2023-03-08T12:04:14;10.90;;;5.60;;
74401;SDS011;62837;51.082;13.744;2023-03-08T12:06:50;10.80;;;5.50;;
74401;SDS011;62837;51.082;13.744;2023-03-08T12:09:24;11.30;;;6.10;;
74401;SDS011;62837;51.082;13.744;2023-03-08T12:12:02;12.10;;;6.50;;
74401;SDS011;62837;51.082;13.744;2023-03-08T12:14:41;11.20;;;6.10;;
74401;SDS011;62837;51.082;13.744;2023-03-08T12:17:19;10.90;;;5.50;;
74401;SDS011;62837;51.082;13.744;2023-03-08T12:19:53;11.20;;;6.40;;
74401;SDS011;62837;51.082;13.744;2023-03-08T12:22:27;11.60;;;6.60;;
74401;SDS011;62837;51.082;13.744;2023-03-08T12:25:08;8.10;;;5.20;;
74401;SDS011;62837;51.082;13.744;2023-03-08T12:27:48;9.30;;;5.40;;
74401;SDS011;62837;51.082;13.744;2023-03-08T12:30:25;11.70;;;7.20;;
74401;SDS011;62837;51.082;13.744;2023-03-08T12:33:02;12.20;;;6.70;;
74401;SDS011;62837;51.082;13.744;2023-03-08T12:35:35;11.30;;;7.20;;
74401;SDS011;62837;51.082;13.744;2023-03-08T12:38:27;13.80;;;7.50;;
74401;SDS011;62837;51.082;13.744;2023-03-08T12:41:00;13.10;;;7.40;;
74401;SDS011;62837;51.082;13.744;2023-03-08T12:43:34;13.70;;;8.20;;
74401;SDS011;62837;51.082;13.744;2023-03-08T12:46:06;13.60;;;8.40;;
74401;SDS011;62837;51.082;13.744;2023-03-08T12:48:39;15.20;;;7.80;;
74401;SDS011;62837;51.082;13.744;2023-03-08T12:51:20;11.40;;;7.10;;
74401;SDS011;62837;51.082;13.744;2023-03-08T12:53:58;13.50;;;7.90;;
74401;SDS011;62837;51.082;13.744;2023-03-08T12:56:32;14.10;;;8.10;;
74401;SDS011;62837;51.082;13.744;2023-03-08T13:02:00;14.50;;;8.70;;
74401;SDS011;62837;51.082;13.744;2023-03-08T13:04:59;14.30;;;8.80;;
74401;SDS011;62837;51.082;13.744;2023-03-08T13:07:32;12.20;;;7.60;;
74401;SDS011;62837;51.082;13.744;2023-03-08T13:10:17;14.60;;;8.20;;
74401;SDS011;62837;51.082;13.744;2023-03-08T13:12:55;15.80;;;9.40;;
74401;SDS011;62837;51.082;13.744;2023-03-08T13:15:33;13.10;;;7.60;;
74401;SDS011;62837;51.082;13.744;2023-03-08T13:18:10;8.50;;;4.90;;
74401;SDS011;62837;51.082;13.744;2023-03-08T13:20:47;13.20;;;7.70;;
74401;SDS011;62837;51.082;13.744;2023-03-08T13:23:28;12.40;;;7.20;;
74401;SDS011;62837;51.082;13.744;2023-03-08T13:29:18;16.00;;;7.30;;
74401;SDS011;62837;51.082;13.744;2023-03-08T13:31:49;10.70;;;6.50;;
74401;SDS011;62837;51.082;13.744;2023-03-08T13:34:25;7.70;;;4.50;;
74401;SDS011;62837;51.082;13.744;2023-03-08T13:36:58;7.00;;;4.20;;
74401;SDS011;62837;51.082;13.744;2023-03-08T13:39:30;8.90;;;5.60;;
74401;SDS011;62837;51.082;13.744;2023-03-08T13:42:08;8.30;;;4.90;;
74401;SDS011;62837;51.082;13.744;2023-03-08T13:44:40;9.40;;;5.80;;
74401;SDS011;62837;51.082;13.744;2023-03-08T13:47:15;7.70;;;4.60;;
74401;SDS011;62837;51.082;13.744;2023-03-08T13:49:50;8.10;;;4.80;;
74401;SDS011;62837;51.082;13.744;2023-03-08T13:52:23;7.00;;;4.10;;
74401;SDS011;62837;51.082;13.744;2023-03-08T13:54:57;6.40;;;4.20;;
74401;SDS011;62837;51.082;13.744;2023-03-08T13:57:30;7.70;;;4.90;;
74401;SDS011;62837;51.082;13.744;2023-03-08T14:00:18;8.40;;;4.90;;
74401;SDS011;62837;51.082;13.744;2023-03-08T14:02:52;7.70;;;4.60;;
74401;SDS011;62837;51.082;13.744;2023-03-08T14:05:25;7.40;;;4.50;;
74401;SDS011;62837;51.082;13.744;2023-03-08T14:08:00;9.30;;;5.60;;
74401;SDS011;62837;51.082;13.744;2023-03-08T14:10:36;7.90;;;5.20;;
74401;SDS011;62837;51.082;13.744;2023-03-08T14:13:14;8.70;;;5.40;;
74401;SDS011;62837;51.082;13.744;2023-03-08T14:15:51;11.40;;;5.50;;
74401;SDS011;62837;51.082;13.744;2023-03-08T14:18:26;8.70;;;5.80;;
74401;SDS011;62837;51.082;13.744;2023-03-08T14:21:00;9.40;;;5.60;;
74401;SDS011;62837;51.082;13.744;2023-03-08T14:23:35;9.70;;;5.50;;
74401;SDS011;62837;51.082;13.744;2023-03-08T14:29:17;10.00;;;6.60;;
74401;SDS011;62837;51.082;13.744;2023-03-08T14:32:03;8.90;;;5.50;;
74401;SDS011;62837;51.082;13.744;2023-03-08T14:35:02;7.90;;;4.50;;
74401;SDS011;62837;51.082;13.744;2023-03-08T14:37:43;7.00;;;4.20;;
74401;SDS011;62837;51.082;13.744;2023-03-08T14:40:20;7.80;;;4.90;;
74401;SDS011;62837;51.082;13.744;2023-03-08T14:42:54;6.30;;;4.00;;
74401;SDS011;62837;51.082;13.744;2023-03-08T14:45:30;6.60;;;4.20;;
74401;SDS011;62837;51.082;13.744;2023-03-08T14:48:20;8.30;;;4.90;;
74401;SDS011;62837;51.082;13.744;2023-03-08T14:50:56;7.70;;;4.40;;
74401;SDS011;62837;51.082;13.744;2023-03-08T14:53:30;6.90;;;3.90;;
74401;SDS011;62837;51.082;13.744;2023-03-08T14:56:04;6.40;;;3.90;;
74401;SDS011;62837;51.082;13.744;2023-03-08T14:58:40;5.30;;;3.30;;
74401;SDS011;62837;51.082;13.744;2023-03-08T15:01:21;6.00;;;3.40;;
74401;SDS011;62837;51.082;13.744;2023-03-08T15:03:54;3.90;;;2.30;;
74401;SDS011;62837;51.082;13.744;2023-03-08T15:06:26;5.50;;;3.40;;
74401;SDS011;62837;51.082;13.744;2023-03-08T15:08:59;5.50;;;3.30;;
74401;SDS011;62837;51.082;13.744;2023-03-08T15:11:32;5.30;;;3.30;;
74401;SDS011;62837;51.082;13.744;2023-03-08T15:14:03;5.00;;;3.30;;
74401;SDS011;62837;51.082;13.744;2023-03-08T15:16:34;5.90;;;3.50;;
74401;SDS011;62837;51.082;13.744;2023-03-08T15:19:05;6.40;;;4.00;;
74401;SDS011;62837;51.082;13.744;2023-03-08T15:21:38;6.40;;;3.50;;
74401;SDS011;62837;51.082;13.744;2023-03-08T15:24:11;5.40;;;3.50;;
74401;SDS011;62837;51.082;13.744;2023-03-08T15:26:44;6.00;;;3.20;;
74401;SDS011;62837;51.082;13.744;2023-03-08T15:29:19;5.90;;;3.50;;
74401;SDS011;62837;51.082;13.744;2023-03-08T15:31:54;5.40;;;3.50;;